sensor_id;sensor_type;location;lat;lon;timestamp;noise_LAeq;noise_LA_min;noise_LA_max;noise_LA01;noise_LA95
59284;Laerm;45056;47.602;9.886;2023-02-28T00:14:06;38.92;34.31;42.88;;
59284;Laerm;45056;47.602;9.886;2023-02-28T00:17:22;40.45;35.66;52.86;;
59284;Laerm;45056;47.602;9.886;2023-02-28T00:20:44;39.54;35.36;42.41;;
59284;Laerm;45056;47.602;9.886;2023-02-28T00:24:30;39.09;35.36;41.75;;
59284;Laerm;45056;47.602;9.886;2023-02-28T00:27:50;39.31;34.69;49.69;;
59284;Laerm;45056;47.602;9.886;2023-02-28T00:49:55;38.67;35.04;43.14;;
59284;Laerm;45056;47.602;9.886;2023-02-28T00:52:23;39.73;34.69;53.91;;
59284;Laerm;45056;47.602;9.886;2023-02-28T00:54:51;40.44;35.36;55.39;;
59284;Laerm;45056;47.602;9.886;2023-02-28T00:57:20;39.55;35.36;42.41;;
59284;Laerm;45056;47.602;9.886;2023-02-28T00:59:48;38.82;35.36;41.61;;
59284;Laerm;45056;47.602;9.886;2023-02-28T01:02:16;41.90;35.04;53.76;;
59284;Laerm;45056;47.602;9.886;2023-02-28T01:04:46;38.58;34.31;40.89;;
59284;Laerm;45056;47.602;9.886;2023-02-28T01:07:14;38.95;35.36;41.53;;
59284;Laerm;45056;47.602;9.886;2023-02-28T01:09:42;38.89;35.36;41.14;;
59284;Laerm;45056;47.602;9.886;2023-02-28T01:12:10;39.42;34.69;42.47;;
59284;Laerm;45056;47.602;9.886;2023-02-28T01:14:40;39.53;35.94;42.09;;
59284;Laerm;45056;47.602;9.886;2023-02-28T01:17:08;39.89;35.04;52.65;;
59284;Laerm;45056;47.602;9.886;2023-02-28T01:19:36;38.98;35.36;41.53;;
59284;Laerm;45056;47.602;9.886;2023-02-28T01:22:07;38.78;35.01;43.81;;
59284;Laerm;45056;47.602;9.886;2023-02-28T01:24:35;38.75;34.69;44.87;;
59284;Laerm;45056;47.602;9.886;2023-02-28T01:27:03;43.23;35.36;58.33;;
59284;Laerm;45056;47.602;9.886;2023-02-28T01:29:31;39.39;35.66;42.29;;
59284;Laerm;45056;47.602;9.886;2023-02-28T01:32:00;40.59;36.20;52.31;;
59284;Laerm;45056;47.602;9.886;2023-02-28T01:34:28;39.07;35.36;41.82;;
59284;Laerm;45056;47.602;9.886;2023-02-28T01:36:56;38.91;35.04;42.98;;
59284;Laerm;45056;47.602;9.886;2023-02-28T01:39:25;39.25;35.36;42.47;;
59284;Laerm;45056;47.602;9.886;2023-02-28T01:41:53;39.86;35.66;48.48;;
59284;Laerm;45056;47.602;9.886;2023-02-28T01:45:00;38.78;35.36;41.14;;
59284;Laerm;45056;47.602;9.886;2023-02-28T01:47:38;40.46;35.36;52.21;;
59284;Laerm;45056;47.602;9.886;2023-02-28T01:50:14;40.83;36.91;48.58;;
59284;Laerm;45056;47.602;9.886;2023-02-28T01:52:46;40.51;35.36;43.94;;
59284;Laerm;45056;47.602;9.886;2023-02-28T01:55:20;39.53;35.36;48.63;;
59284;Laerm;45056;47.602;9.886;2023-02-28T01:57:56;38.82;33.44;41.22;;
59284;Laerm;45056;47.602;9.886;2023-02-28T02:00:30;42.53;35.04;54.07;;
59284;Laerm;45056;47.602;9.886;2023-02-28T02:03:09;39.23;35.66;42.16;;
59284;Laerm;45056;47.602;9.886;2023-02-28T02:05:40;39.27;35.36;42.03;;
59284;Laerm;45056;47.602;9.886;2023-02-28T02:08:13;44.26;35.04;61.16;;
59284;Laerm;45056;47.602;9.886;2023-02-28T02:10:45;40.71;35.66;53.20;;
59284;Laerm;45056;47.602;9.886;2023-02-28T02:13:38;41.50;35.66;56.01;;
59284;Laerm;45056;47.602;9.886;2023-02-28T02:16:34;39.38;34.69;52.13;;
59284;Laerm;45056;47.602;9.886;2023-02-28T02:19:46;38.67;35.04;41.38;;
59284;Laerm;45056;47.602;9.886;2023-02-28T02:23:17;39.13;35.04;44.35;;
59284;Laerm;45056;47.602;9.886;2023-02-28T02:26:11;40.52;35.66;50.52;;
59284;Laerm;45056;47.602;9.886;2023-02-28T02:29:33;40.30;35.04;51.93;;
59284;Laerm;45056;47.602;9.886;2023-02-28T02:32:54;39.50;35.04;52.15;;
59284;Laerm;45056;47.602;9.886;2023-02-28T02:35:40;39.32;35.66;41.89;;
59284;Laerm;45056;47.602;9.886;2023-02-28T02:38:29;39.82;35.04;53.67;;
59284;Laerm;45056;47.602;9.886;2023-02-28T02:41:12;44.62;34.69;62.67;;
59284;Laerm;45056;47.602;9.886;2023-02-28T02:43:51;41.31;36.20;56.22;;
59284;Laerm;45056;47.602;9.886;2023-02-28T02:46:34;40.62;35.66;51.81;;
59284;Laerm;45056;47.602;9.886;2023-02-28T02:49:13;40.04;35.04;50.92;;
59284;Laerm;45056;47.602;9.886;2023-02-28T02:51:47;41.23;34.69;57.39;;
59284;Laerm;45056;47.602;9.886;2023-02-28T02:54:22;39.73;35.94;47.52;;
59284;Laerm;45056;47.602;9.886;2023-02-28T02:57:01;41.26;35.66;49.10;;
59284;Laerm;45056;47.602;9.886;2023-02-28T02:59:35;48.91;36.20;66.21;;
59284;Laerm;45056;47.602;9.886;2023-02-28T03:02:10;43.51;35.66;54.74;;
59284;Laerm;45056;47.602;9.886;2023-02-28T03:04:46;41.04;36.45;52.80;;
59284;Laerm;45056;47.602;9.886;2023-02-28T03:07:18;46.82;35.94;63.52;;
59284;Laerm;45056;47.602;9.886;2023-02-28T03:09:51;46.05;36.45;62.70;;
59284;Laerm;45056;47.602;9.886;2023-02-28T03:12:26;40.48;35.94;45.11;;
59284;Laerm;45056;47.602;9.886;2023-02-28T03:15:13;40.96;35.36;55.07;;
59284;Laerm;45056;47.602;9.886;2023-02-28T03:18:04;40.25;36.45;43.29;;
59284;Laerm;45056;47.602;9.886;2023-02-28T03:20:54;40.71;36.45;50.86;;
59284;Laerm;45056;47.602;9.886;2023-02-28T03:23:39;40.68;36.20;49.96;;
59284;Laerm;45056;47.602;9.886;2023-02-28T03:26:19;42.75;36.10;52.63;;
59284;Laerm;45056;47.602;9.886;2023-02-28T03:29:01;40.83;36.45;47.61;;
59284;Laerm;45056;47.602;9.886;2023-02-28T03:31:37;42.44;37.52;52.24;;
59284;Laerm;45056;47.602;9.886;2023-02-28T03:34:12;48.16;38.21;64.86;;
59284;Laerm;45056;47.602;9.886;2023-02-28T03:36:48;41.28;35.94;52.31;;
59284;Laerm;45056;47.602;9.886;2023-02-28T03:39:30;41.61;37.12;46.80;;
59284;Laerm;45056;47.602;9.886;2023-02-28T03:42:09;41.53;36.69;49.46;;
59284;Laerm;45056;47.602;9.886;2023-02-28T03:44:44;41.83;37.12;53.28;;
59284;Laerm;45056;47.602;9.886;2023-02-28T03:47:22;42.65;37.12;52.93;;
59284;Laerm;45056;47.602;9.886;2023-02-28T03:49:59;41.93;37.70;51.67;;
59284;Laerm;45056;47.602;9.886;2023-02-28T03:52:37;41.29;36.69;54.05;;
59284;Laerm;45056;47.602;9.886;2023-02-28T03:55:13;41.75;37.32;51.95;;
59284;Laerm;45056;47.602;9.886;2023-02-28T03:57:56;45.84;36.91;60.08;;
59284;Laerm;45056;47.602;9.886;2023-02-28T04:00:34;44.14;37.17;56.04;;
59284;Laerm;45056;47.602;9.886;2023-02-28T04:03:04;41.18;35.36;50.35;;
59284;Laerm;45056;47.602;9.886;2023-02-28T04:05:50;41.27;36.91;49.27;;
59284;Laerm;45056;47.602;9.886;2023-02-28T04:08:19;41.07;37.52;43.90;;
59284;Laerm;45056;47.602;9.886;2023-02-28T04:11:01;41.47;37.52;48.61;;
59284;Laerm;45056;47.602;9.886;2023-02-28T04:13:32;42.09;38.05;49.02;;
59284;Laerm;45056;47.602;9.886;2023-02-28T04:16:00;42.99;38.05;52.80;;
59284;Laerm;45056;47.602;9.886;2023-02-28T04:18:28;43.68;38.52;50.98;;
59284;Laerm;45056;47.602;9.886;2023-02-28T04:21:00;41.35;37.12;48.28;;
59284;Laerm;45056;47.602;9.886;2023-02-28T04:23:28;42.29;37.52;50.32;;
59284;Laerm;45056;47.602;9.886;2023-02-28T04:25:57;41.49;38.02;47.96;;
59284;Laerm;45056;47.602;9.886;2023-02-28T04:28:25;44.73;38.05;66.02;;
59284;Laerm;45056;47.602;9.886;2023-02-28T04:30:57;43.14;38.05;54.07;;
59284;Laerm;45056;47.602;9.886;2023-02-28T04:33:25;43.63;36.45;56.56;;
59284;Laerm;45056;47.602;9.886;2023-02-28T04:36:00;44.90;38.37;61.94;;
59284;Laerm;45056;47.602;9.886;2023-02-28T04:38:29;46.55;38.37;59.90;;
59284;Laerm;45056;47.602;9.886;2023-02-28T04:40:59;43.77;38.37;57.40;;
59284;Laerm;45056;47.602;9.886;2023-02-28T04:43:30;43.91;37.70;59.21;;
59284;Laerm;45056;47.602;9.886;2023-02-28T04:46:03;43.44;38.05;53.84;;
59284;Laerm;45056;47.602;9.886;2023-02-28T04:48:35;46.07;39.34;57.94;;
59284;Laerm;45056;47.602;9.886;2023-02-28T04:51:07;43.71;38.52;51.74;;
59284;Laerm;45056;47.602;9.886;2023-02-28T04:53:38;43.40;38.81;57.33;;
59284;Laerm;45056;47.602;9.886;2023-02-28T04:56:13;46.73;39.46;60.22;;
59284;Laerm;45056;47.602;9.886;2023-02-28T04:58:42;43.36;39.08;53.79;;
59284;Laerm;45056;47.602;9.886;2023-02-28T05:01:23;46.35;38.95;58.50;;
59284;Laerm;45056;47.602;9.886;2023-02-28T05:03:54;53.99;38.37;64.81;;
59284;Laerm;45056;47.602;9.886;2023-02-28T05:06:25;43.08;37.12;54.59;;
59284;Laerm;45056;47.602;9.886;2023-02-28T05:08:54;42.79;37.52;52.21;;
59284;Laerm;45056;47.602;9.886;2023-02-28T05:11:29;43.26;38.21;52.45;;
59284;Laerm;45056;47.602;9.886;2023-02-28T05:14:01;45.12;35.94;58.73;;
59284;Laerm;45056;47.602;9.886;2023-02-28T05:16:31;43.41;37.87;53.95;;
59284;Laerm;45056;47.602;9.886;2023-02-28T05:18:59;42.46;38.52;51.45;;
59284;Laerm;45056;47.602;9.886;2023-02-28T05:21:30;43.05;37.52;53.79;;
59284;Laerm;45056;47.602;9.886;2023-02-28T05:24:02;46.14;38.52;58.26;;
59284;Laerm;45056;47.602;9.886;2023-02-28T05:26:35;41.63;37.70;47.02;;
59284;Laerm;45056;47.602;9.886;2023-02-28T05:29:04;48.05;39.58;61.80;;
59284;Laerm;45056;47.602;9.886;2023-02-28T05:31:34;44.21;37.88;56.32;;
59284;Laerm;45056;47.602;9.886;2023-02-28T05:34:02;44.94;38.21;57.95;;
59284;Laerm;45056;47.602;9.886;2023-02-28T05:36:31;43.13;38.95;50.54;;
59284;Laerm;45056;47.602;9.886;2023-02-28T05:38:59;46.90;39.08;61.34;;
59284;Laerm;45056;47.602;9.886;2023-02-28T05:41:27;45.18;36.91;58.61;;
59284;Laerm;45056;47.602;9.886;2023-02-28T05:43:57;45.88;38.87;60.80;;
59284;Laerm;45056;47.602;9.886;2023-02-28T05:46:26;45.05;38.81;53.99;;
59284;Laerm;45056;47.602;9.886;2023-02-28T05:48:54;46.84;39.08;62.30;;
59284;Laerm;45056;47.602;9.886;2023-02-28T05:51:24;45.05;39.81;56.10;;
59284;Laerm;45056;47.602;9.886;2023-02-28T05:53:52;45.65;39.34;57.15;;
59284;Laerm;45056;47.602;9.886;2023-02-28T05:56:20;47.07;39.70;60.99;;
59284;Laerm;45056;47.602;9.886;2023-02-28T05:58:48;44.84;39.34;54.31;;
59284;Laerm;45056;47.602;9.886;2023-02-28T06:01:26;46.73;40.03;55.20;;
59284;Laerm;45056;47.602;9.886;2023-02-28T06:03:58;46.60;41.06;60.63;;
59284;Laerm;45056;47.602;9.886;2023-02-28T06:06:28;46.88;39.81;58.96;;
59284;Laerm;45056;47.602;9.886;2023-02-28T06:08:57;44.62;39.08;54.21;;
59284;Laerm;45056;47.602;9.886;2023-02-28T06:11:25;45.45;38.67;56.44;;
59284;Laerm;45056;47.602;9.886;2023-02-28T06:13:55;45.04;38.81;54.97;;
59284;Laerm;45056;47.602;9.886;2023-02-28T06:16:25;45.81;40.33;55.55;;
59284;Laerm;45056;47.602;9.886;2023-02-28T06:18:54;45.06;40.13;55.30;;
59284;Laerm;45056;47.602;9.886;2023-02-28T06:21:23;45.42;39.70;53.86;;
59284;Laerm;45056;47.602;9.886;2023-02-28T06:23:51;45.72;40.23;53.97;;
59284;Laerm;45056;47.602;9.886;2023-02-28T06:26:20;46.80;40.80;55.87;;
59284;Laerm;45056;47.602;9.886;2023-02-28T06:28:49;46.33;41.06;56.16;;
59284;Laerm;45056;47.602;9.886;2023-02-28T06:31:21;47.31;40.89;56.01;;
59284;Laerm;45056;47.602;9.886;2023-02-28T06:33:55;45.99;39.58;55.33;;
59284;Laerm;45056;47.602;9.886;2023-02-28T06:36:23;45.87;39.70;55.13;;
59284;Laerm;45056;47.602;9.886;2023-02-28T06:38:51;49.49;40.33;61.22;;
59284;Laerm;45056;47.602;9.886;2023-02-28T06:41:24;47.09;40.89;57.97;;
59284;Laerm;45056;47.602;9.886;2023-02-28T06:43:53;48.48;40.88;61.62;;
59284;Laerm;45056;47.602;9.886;2023-02-28T06:46:21;47.19;41.30;54.22;;
59284;Laerm;45056;47.602;9.886;2023-02-28T06:48:50;46.23;41.75;53.11;;
59284;Laerm;45056;47.602;9.886;2023-02-28T06:51:20;50.62;39.81;65.31;;
59284;Laerm;45056;47.602;9.886;2023-02-28T06:53:48;48.55;40.23;63.32;;
59284;Laerm;45056;47.602;9.886;2023-02-28T06:56:18;45.54;39.92;57.79;;
59284;Laerm;45056;47.602;9.886;2023-02-28T07:01:17;47.50;40.03;54.61;;
59284;Laerm;45056;47.602;9.886;2023-02-28T07:03:46;48.67;40.89;69.45;;
59284;Laerm;45056;47.602;9.886;2023-02-28T07:06:20;45.60;39.70;56.11;;
59284;Laerm;45056;47.602;9.886;2023-02-28T07:08:51;45.17;40.43;54.44;;
59284;Laerm;45056;47.602;9.886;2023-02-28T07:11:21;47.36;39.81;60.16;;
59284;Laerm;45056;47.602;9.886;2023-02-28T07:13:50;45.16;39.08;53.93;;
59284;Laerm;45056;47.602;9.886;2023-02-28T07:16:18;48.62;38.60;65.72;;
59284;Laerm;45056;47.602;9.886;2023-02-28T07:18:46;46.95;40.33;56.75;;
59284;Laerm;45056;47.602;9.886;2023-02-28T07:21:15;47.05;39.70;58.26;;
59284;Laerm;45056;47.602;9.886;2023-02-28T07:23:45;45.77;39.34;53.73;;
59284;Laerm;45056;47.602;9.886;2023-02-28T07:26:16;46.89;40.33;57.13;;
59284;Laerm;45056;47.602;9.886;2023-02-28T07:28:47;53.08;42.29;74.89;;
59284;Laerm;45056;47.602;9.886;2023-02-28T07:31:17;53.99;41.22;76.34;;
59284;Laerm;45056;47.602;9.886;2023-02-28T07:33:45;45.04;39.34;54.82;;
59284;Laerm;45056;47.602;9.886;2023-02-28T07:36:16;46.78;39.70;63.06;;
59284;Laerm;45056;47.602;9.886;2023-02-28T07:38:48;45.15;40.80;53.57;;
59284;Laerm;45056;47.602;9.886;2023-02-28T07:41:20;47.48;39.46;60.70;;
59284;Laerm;45056;47.602;9.886;2023-02-28T07:43:48;45.86;39.46;54.99;;
59284;Laerm;45056;47.602;9.886;2023-02-28T07:46:17;46.28;39.21;55.33;;
59284;Laerm;45056;47.602;9.886;2023-02-28T07:48:48;46.40;40.80;57.30;;
59284;Laerm;45056;47.602;9.886;2023-02-28T07:51:16;47.56;37.52;59.45;;
59284;Laerm;45056;47.602;9.886;2023-02-28T07:53:44;46.35;40.43;55.24;;
59284;Laerm;45056;47.602;9.886;2023-02-28T07:56:13;46.14;39.34;59.55;;
59284;Laerm;45056;47.602;9.886;2023-02-28T07:58:41;47.13;38.81;66.79;;
59284;Laerm;45056;47.602;9.886;2023-02-28T08:01:11;47.49;39.70;57.77;;
59284;Laerm;45056;47.602;9.886;2023-02-28T08:03:40;47.38;39.58;58.27;;
59284;Laerm;45056;47.602;9.886;2023-02-28T08:06:17;45.61;40.23;54.03;;
59284;Laerm;45056;47.602;9.886;2023-02-28T08:08:45;44.80;38.21;56.49;;
59284;Laerm;45056;47.602;9.886;2023-02-28T08:11:16;47.78;38.81;62.37;;
59284;Laerm;45056;47.602;9.886;2023-02-28T08:13:45;48.46;38.37;65.08;;
59284;Laerm;45056;47.602;9.886;2023-02-28T08:16:14;44.30;39.21;52.71;;
59284;Laerm;45056;47.602;9.886;2023-02-28T08:18:48;45.21;38.81;53.56;;
59284;Laerm;45056;47.602;9.886;2023-02-28T08:21:18;48.17;41.22;67.18;;
59284;Laerm;45056;47.602;9.886;2023-02-28T08:23:47;44.01;38.67;55.35;;
59284;Laerm;45056;47.602;9.886;2023-02-28T08:26:18;45.41;40.33;55.60;;
59284;Laerm;45056;47.602;9.886;2023-02-28T08:28:46;45.22;39.58;55.16;;
59284;Laerm;45056;47.602;9.886;2023-02-28T08:31:16;45.51;39.46;53.82;;
59284;Laerm;45056;47.602;9.886;2023-02-28T08:33:44;47.16;40.08;60.67;;
59284;Laerm;45056;47.602;9.886;2023-02-28T08:36:15;47.75;39.70;59.86;;
59284;Laerm;45056;47.602;9.886;2023-02-28T08:38:43;44.75;39.34;52.80;;
59284;Laerm;45056;47.602;9.886;2023-02-28T08:41:13;47.62;39.34;62.69;;
59284;Laerm;45056;47.602;9.886;2023-02-28T08:43:42;45.23;39.81;55.00;;
59284;Laerm;45056;47.602;9.886;2023-02-28T08:46:12;47.02;39.58;57.53;;
59284;Laerm;45056;47.602;9.886;2023-02-28T08:48:40;46.29;40.03;58.37;;
59284;Laerm;45056;47.602;9.886;2023-02-28T08:51:12;46.21;40.33;55.75;;
59284;Laerm;45056;47.602;9.886;2023-02-28T08:53:40;46.47;41.14;59.08;;
59284;Laerm;45056;47.602;9.886;2023-02-28T08:56:11;45.33;39.35;55.57;;
59284;Laerm;45056;47.602;9.886;2023-02-28T08:58:40;45.98;40.71;54.49;;
59284;Laerm;45056;47.602;9.886;2023-02-28T09:01:12;47.85;40.62;55.88;;
59284;Laerm;45056;47.602;9.886;2023-02-28T09:03:42;46.66;40.23;59.30;;
59284;Laerm;45056;47.602;9.886;2023-02-28T09:06:10;45.31;39.70;56.36;;
59284;Laerm;45056;47.602;9.886;2023-02-28T09:08:40;44.85;40.03;58.61;;
59284;Laerm;45056;47.602;9.886;2023-02-28T09:11:09;45.83;39.46;56.85;;
59284;Laerm;45056;47.602;9.886;2023-02-28T09:13:38;47.02;40.23;55.66;;
59284;Laerm;45056;47.602;9.886;2023-02-28T09:16:13;45.53;39.58;56.84;;
59284;Laerm;45056;47.602;9.886;2023-02-28T09:18:42;45.21;39.46;53.64;;
59284;Laerm;45056;47.602;9.886;2023-02-28T09:21:13;45.91;40.03;55.66;;
59284;Laerm;45056;47.602;9.886;2023-02-28T09:23:44;45.56;40.80;54.29;;
59284;Laerm;45056;47.602;9.886;2023-02-28T09:26:14;45.86;40.43;55.62;;
59284;Laerm;45056;47.602;9.886;2023-02-28T09:28:43;45.61;38.81;53.80;;
59284;Laerm;45056;47.602;9.886;2023-02-28T09:31:17;48.30;40.23;58.65;;
59284;Laerm;45056;47.602;9.886;2023-02-28T09:33:48;46.42;40.13;57.00;;
59284;Laerm;45056;47.602;9.886;2023-02-28T09:36:17;45.20;39.70;53.98;;
59284;Laerm;45056;47.602;9.886;2023-02-28T09:38:46;45.98;39.08;57.88;;
59284;Laerm;45056;47.602;9.886;2023-02-28T09:41:17;45.49;39.81;53.46;;
59284;Laerm;45056;47.602;9.886;2023-02-28T09:43:52;46.14;40.03;57.44;;
59284;Laerm;45056;47.602;9.886;2023-02-28T09:46:33;46.43;40.80;53.82;;
59284;Laerm;45056;47.602;9.886;2023-02-28T09:49:08;46.59;39.34;56.80;;
59284;Laerm;45056;47.602;9.886;2023-02-28T09:51:52;46.16;40.54;54.10;;
59284;Laerm;45056;47.602;9.886;2023-02-28T09:54:28;46.26;40.43;54.37;;
59284;Laerm;45056;47.602;9.886;2023-02-28T09:57:04;50.10;40.23;65.09;;
59284;Laerm;45056;47.602;9.886;2023-02-28T09:59:48;45.88;40.53;57.08;;
59284;Laerm;45056;47.602;9.886;2023-02-28T10:02:52;47.97;40.33;57.38;;
59284;Laerm;45056;47.602;9.886;2023-02-28T10:05:29;48.00;40.13;66.41;;
59284;Laerm;45056;47.602;9.886;2023-02-28T10:08:12;47.95;40.71;62.03;;
59284;Laerm;45056;47.602;9.886;2023-02-28T10:10:45;49.70;40.23;65.12;;
59284;Laerm;45056;47.602;9.886;2023-02-28T10:13:26;46.11;40.23;56.65;;
59284;Laerm;45056;47.602;9.886;2023-02-28T10:16:03;46.42;40.71;55.54;;
59284;Laerm;45056;47.602;9.886;2023-02-28T10:18:46;46.38;41.61;55.75;;
59284;Laerm;45056;47.602;9.886;2023-02-28T10:21:22;46.40;40.33;54.84;;
59284;Laerm;45056;47.602;9.886;2023-02-28T10:24:05;46.93;39.08;60.00;;
59284;Laerm;45056;47.602;9.886;2023-02-28T10:26:43;45.80;40.53;54.26;;
59284;Laerm;45056;47.602;9.886;2023-02-28T10:29:12;46.59;40.80;57.43;;
59284;Laerm;45056;47.602;9.886;2023-02-28T10:31:41;44.89;39.70;55.76;;
59284;Laerm;45056;47.602;9.886;2023-02-28T10:34:12;46.49;39.21;55.57;;
59284;Laerm;45056;47.602;9.886;2023-02-28T10:36:42;48.93;40.98;62.25;;
59284;Laerm;45056;47.602;9.886;2023-02-28T10:39:38;46.88;40.13;57.79;;
59284;Laerm;45056;47.602;9.886;2023-02-28T10:42:23;45.85;41.68;55.20;;
59284;Laerm;45056;47.602;9.886;2023-02-28T10:45:10;49.11;39.34;62.13;;
59284;Laerm;45056;47.602;9.886;2023-02-28T10:47:52;46.78;39.70;56.10;;
59284;Laerm;45056;47.602;9.886;2023-02-28T10:50:43;50.06;40.62;66.61;;
59284;Laerm;45056;47.602;9.886;2023-02-28T10:53:30;46.28;40.33;58.79;;
59284;Laerm;45056;47.602;9.886;2023-02-28T10:56:02;50.69;41.68;64.17;;
59284;Laerm;45056;47.602;9.886;2023-02-28T10:58:49;47.37;39.92;59.70;;
59284;Laerm;45056;47.602;9.886;2023-02-28T11:01:20;50.08;40.62;61.65;;
59284;Laerm;45056;47.602;9.886;2023-02-28T11:03:53;57.38;41.68;68.72;;
59284;Laerm;45056;47.602;9.886;2023-02-28T11:06:26;57.88;41.30;73.62;;
59284;Laerm;45056;47.602;9.886;2023-02-28T11:09:00;48.21;41.22;60.86;;
59284;Laerm;45056;47.602;9.886;2023-02-28T11:11:42;47.35;39.92;58.40;;
59284;Laerm;45056;47.602;9.886;2023-02-28T11:14:21;47.38;40.89;60.26;;
59284;Laerm;45056;47.602;9.886;2023-02-28T11:16:52;46.62;39.81;57.41;;
59284;Laerm;45056;47.602;9.886;2023-02-28T11:19:26;46.90;41.53;56.72;;
59284;Laerm;45056;47.602;9.886;2023-02-28T11:22:02;46.75;40.62;57.97;;
59284;Laerm;45056;47.602;9.886;2023-02-28T11:24:37;48.14;41.38;60.18;;
59284;Laerm;45056;47.602;9.886;2023-02-28T11:27:45;46.15;41.46;55.85;;
59284;Laerm;45056;47.602;9.886;2023-02-28T11:30:34;45.48;40.33;55.41;;
59284;Laerm;45056;47.602;9.886;2023-02-28T11:33:23;45.40;41.14;54.41;;
59284;Laerm;45056;47.602;9.886;2023-02-28T11:35:56;46.45;40.43;58.18;;
59284;Laerm;45056;47.602;9.886;2023-02-28T11:38:27;46.02;40.23;55.59;;
59284;Laerm;45056;47.602;9.886;2023-02-28T11:44:20;46.17;39.58;59.57;;
59284;Laerm;45056;47.602;9.886;2023-02-28T11:46:56;47.60;39.99;57.92;;
59284;Laerm;45056;47.602;9.886;2023-02-28T11:49:39;45.89;40.33;57.22;;
59284;Laerm;45056;47.602;9.886;2023-02-28T11:52:24;48.19;40.71;63.60;;
59284;Laerm;45056;47.602;9.886;2023-02-28T11:55:15;47.02;40.71;56.14;;
59284;Laerm;45056;47.602;9.886;2023-02-28T11:58:07;46.77;40.89;55.88;;
59284;Laerm;45056;47.602;9.886;2023-02-28T12:01:01;48.08;41.53;58.97;;
59284;Laerm;45056;47.602;9.886;2023-02-28T12:03:44;45.47;40.98;56.84;;
59284;Laerm;45056;47.602;9.886;2023-02-28T12:06:25;47.15;41.82;57.63;;
59284;Laerm;45056;47.602;9.886;2023-02-28T12:09:24;48.07;40.62;60.97;;
59284;Laerm;45056;47.602;9.886;2023-02-28T12:12:10;48.05;42.41;59.95;;
59284;Laerm;45056;47.602;9.886;2023-02-28T12:15:20;46.54;40.53;60.69;;
59284;Laerm;45056;47.602;9.886;2023-02-28T12:18:24;49.84;41.61;66.60;;
59284;Laerm;45056;47.602;9.886;2023-02-28T12:21:04;46.62;40.80;61.55;;
59284;Laerm;45056;47.602;9.886;2023-02-28T12:24:00;51.45;41.61;64.91;;
59284;Laerm;45056;47.602;9.886;2023-02-28T12:26:38;46.43;40.43;59.68;;
59284;Laerm;45056;47.602;9.886;2023-02-28T12:29:19;50.48;40.89;64.77;;
59284;Laerm;45056;47.602;9.886;2023-02-28T12:31:58;53.06;41.14;78.13;;
59284;Laerm;45056;47.602;9.886;2023-02-28T12:34:34;52.43;41.22;64.50;;
59284;Laerm;45056;47.602;9.886;2023-02-28T12:37:14;50.13;41.89;63.63;;
59284;Laerm;45056;47.602;9.886;2023-02-28T12:39:54;48.22;41.30;61.89;;
59284;Laerm;45056;47.602;9.886;2023-02-28T12:42:29;47.59;40.23;61.14;;
59284;Laerm;45056;47.602;9.886;2023-02-28T12:45:05;46.05;41.03;54.51;;
59284;Laerm;45056;47.602;9.886;2023-02-28T12:47:40;47.15;41.82;59.22;;
59284;Laerm;45056;47.602;9.886;2023-02-28T12:50:11;51.52;41.96;63.52;;
59284;Laerm;45056;47.602;9.886;2023-02-28T12:52:53;47.13;40.03;59.16;;
59284;Laerm;45056;47.602;9.886;2023-02-28T12:55:36;46.88;41.75;60.89;;
59284;Laerm;45056;47.602;9.886;2023-02-28T12:58:19;46.13;41.06;55.08;;
59284;Laerm;45056;47.602;9.886;2023-02-28T13:01:27;48.77;40.62;59.50;;
59284;Laerm;45056;47.602;9.886;2023-02-28T13:04:36;48.43;40.89;61.19;;
59284;Laerm;45056;47.602;9.886;2023-02-28T13:07:41;45.57;40.43;55.57;;
59284;Laerm;45056;47.602;9.886;2023-02-28T13:10:19;50.18;39.92;65.23;;
59284;Laerm;45056;47.602;9.886;2023-02-28T13:12:49;46.31;40.89;54.56;;
59284;Laerm;45056;47.602;9.886;2023-02-28T13:15:23;47.13;41.61;56.62;;
59284;Laerm;45056;47.602;9.886;2023-02-28T13:17:58;45.77;41.68;54.76;;
59284;Laerm;45056;47.602;9.886;2023-02-28T13:20:35;46.14;40.98;56.22;;
59284;Laerm;45056;47.602;9.886;2023-02-28T13:26:07;45.22;40.53;53.36;;
59284;Laerm;45056;47.602;9.886;2023-02-28T13:29:21;46.16;40.53;57.64;;
59284;Laerm;45056;47.602;9.886;2023-02-28T13:32:35;47.84;39.58;60.15;;
59284;Laerm;45056;47.602;9.886;2023-02-28T13:35:44;46.75;39.92;56.90;;
59284;Laerm;45056;47.602;9.886;2023-02-28T13:38:33;47.86;40.03;58.66;;
59284;Laerm;45056;47.602;9.886;2023-02-28T13:44:20;47.01;40.03;58.43;;
59284;Laerm;45056;47.602;9.886;2023-02-28T13:47:21;46.56;40.23;58.29;;
59284;Laerm;45056;47.602;9.886;2023-02-28T13:49:52;47.46;40.03;58.64;;
59284;Laerm;45056;47.602;9.886;2023-02-28T13:52:25;47.37;40.43;55.28;;
59284;Laerm;45056;47.602;9.886;2023-02-28T13:55:24;48.29;39.81;60.46;;
59284;Laerm;45056;47.602;9.886;2023-02-28T13:58:20;49.08;40.80;60.72;;
59284;Laerm;45056;47.602;9.886;2023-02-28T14:04:46;46.75;40.62;58.35;;
59284;Laerm;45056;47.602;9.886;2023-02-28T14:07:27;47.07;41.96;56.04;;
59284;Laerm;45056;47.602;9.886;2023-02-28T14:10:03;47.82;38.95;55.89;;
59284;Laerm;45056;47.602;9.886;2023-02-28T14:12:58;45.65;39.57;55.24;;
59284;Laerm;45056;47.602;9.886;2023-02-28T14:15:54;47.44;40.03;58.56;;
59284;Laerm;45056;47.602;9.886;2023-02-28T14:18:29;48.86;40.89;62.91;;
59284;Laerm;45056;47.602;9.886;2023-02-28T14:21:12;46.63;39.70;56.57;;
59284;Laerm;45056;47.602;9.886;2023-02-28T14:24:29;47.94;40.80;58.13;;
59284;Laerm;45056;47.602;9.886;2023-02-28T14:27:23;49.28;41.96;63.93;;
59284;Laerm;45056;47.602;9.886;2023-02-28T14:30:49;47.48;40.62;58.30;;
59284;Laerm;45056;47.602;9.886;2023-02-28T14:33:33;46.86;40.62;56.14;;
59284;Laerm;45056;47.602;9.886;2023-02-28T14:36:14;47.59;41.30;60.18;;
59284;Laerm;45056;47.602;9.886;2023-02-28T14:38:50;51.27;40.80;73.14;;
59284;Laerm;45056;47.602;9.886;2023-02-28T14:41:24;46.52;40.53;58.45;;
59284;Laerm;45056;47.602;9.886;2023-02-28T14:43:59;47.09;40.80;55.91;;
59284;Laerm;45056;47.602;9.886;2023-02-28T14:46:37;47.02;39.46;55.64;;
59284;Laerm;45056;47.602;9.886;2023-02-28T14:49:16;51.96;41.88;68.43;;
59284;Laerm;45056;47.602;9.886;2023-02-28T14:51:46;47.87;42.47;58.82;;
59284;Laerm;45056;47.602;9.886;2023-02-28T14:54:20;46.83;41.96;56.57;;
59284;Laerm;45056;47.602;9.886;2023-02-28T14:56:52;47.30;41.14;59.01;;
59284;Laerm;45056;47.602;9.886;2023-02-28T14:59:28;48.33;40.13;57.37;;
59284;Laerm;45056;47.602;9.886;2023-02-28T15:02:19;48.21;40.33;61.23;;
59284;Laerm;45056;47.602;9.886;2023-02-28T15:04:57;47.18;41.75;56.32;;
59284;Laerm;45056;47.602;9.886;2023-02-28T15:07:27;63.92;41.46;89.99;;
59284;Laerm;45056;47.602;9.886;2023-02-28T15:10:17;56.16;40.13;84.16;;
59284;Laerm;45056;47.602;9.886;2023-02-28T15:12:53;48.17;42.03;61.27;;
59284;Laerm;45056;47.602;9.886;2023-02-28T15:15:37;47.76;40.71;58.07;;
59284;Laerm;45056;47.602;9.886;2023-02-28T15:18:16;47.46;40.80;55.72;;
59284;Laerm;45056;47.602;9.886;2023-02-28T15:20:51;48.27;41.96;59.20;;
59284;Laerm;45056;47.602;9.886;2023-02-28T15:23:22;46.97;41.06;56.03;;
59284;Laerm;45056;47.602;9.886;2023-02-28T15:25:53;48.08;40.80;65.24;;
59284;Laerm;45056;47.602;9.886;2023-02-28T15:28:24;46.97;41.82;55.27;;